MSC Ingrid — HOHA — position and weather

sailwx.info

Track history (hours):
 
Tides and Currents Weather Stations Pressure Air Temp Water Temp Dewpoint Dewpoint Depression Visibility Wind Speed Wind Dir Waves Ship Positions

MSC Ingrid

Last reported at 2017-Mar-23 13:32 UTC. Time now 2017-Mar-23 14:05 UTC.
Position N 51°17' E 004°15'.

Length 294 m; draft 10.9 m.

Type: Ship (hazmat cat A). MMSI: 354505000.

Date/timePositionNaut miles runAvg speedWind from/ knotsBaromVisibWave heightAir tempDewpointWater temp
2017-Mar-23 13:32N 51°17' E 004°15'0 0.0
2017-Mar-23 12:26N 51°17' E 004°15'0 0.0
2017-Mar-23 11:29N 51°17' E 004°15'0 0.4
2017-Mar-23 10:34N 51°17' E 004°16'0 0.4
2017-Mar-23 09:28N 51°17' E 004°15'0 0.1
2017-Mar-23 08:28N 51°17' E 004°15'0 0.0
2017-Mar-23 07:31N 51°17' E 004°15'0 0.0
2017-Mar-23 06:25N 51°17' E 004°15'0 0.0
2017-Mar-23 05:28N 51°17' E 004°15'0 0.0
2017-Mar-23 04:31N 51°17' E 004°15'0 0.0
2017-Mar-23 03:31N 51°17' E 004°15'0 0.0
2017-Mar-23 02:33N 51°17' E 004°15'0 0.0
2017-Mar-23 01:33N 51°17' E 004°15'0 0.0
2017-Mar-23 00:33N 51°17' E 004°15'0 0.0
2017-Mar-22 23:33N 51°17' E 004°15'0 0.0
2017-Mar-22 22:33N 51°17' E 004°15'0 0.0
2017-Mar-22 21:33N 51°17' E 004°15'0 0.4
2017-Mar-22 20:33N 51°17' E 004°16'4 3.6
2017-Mar-22 19:33N 51°21' E 004°15'10 9.4
2017-Mar-22 18:32N 51°25' E 004°02'1211.9
2017-Mar-22 17:34N 51°23' E 003°44'1110.8
2017-Mar-22 16:33N 51°25' E 003°27'1615.8
2017-Mar-22 15:33N 51°25' E 003°01'1515.0
2017-Mar-22 14:34N 51°39' E 003°11'9 8.7
2017-Mar-22 13:33N 51°47' E 003°15'4 2.1
2017-Mar-22 11:33N 51°49' E 003°21'0 0.0
2017-Mar-22 09:27N 51°49' E 003°21'0 0.0
2017-Mar-22 08:33N 51°49' E 003°21'0 0.0
2017-Mar-22 07:33N 51°49' E 003°21'0 0.0
2017-Mar-22 06:33N 51°49' E 003°21'1 0.7
2017-Mar-22 05:22N 51°50' E 003°21'10 9.8
2017-Mar-22 04:20N 51°60' E 003°20'1719.9
2017-Mar-22 03:28N 52°16' E 003°26'5518.4
2017-Mar-22 00:27N 53°03' E 004°14'1718.0
2017-Mar-21 23:30N 53°18' E 004°30'13018.0
2017-Mar-21 16:17N 54°02' E 007°56'1215.4
2017-Mar-21 15:32N 54°00' E 008°16'1413.9
2017-Mar-21 14:33N 53°57' E 008°39'1111.0
2017-Mar-21 13:33N 53°51' E 008°54'1212.2
2017-Mar-21 12:33N 53°53' E 009°14'1615.5
2017-Mar-21 11:34N 53°41' E 009°30'1312.7
2017-Mar-21 10:33N 53°33' E 009°48'4 3.8
2017-Mar-21 09:32N 53°32' E 009°54'0 0.0
2017-Mar-21 08:29N 53°32' E 009°54'0 0.0
2017-Mar-21 07:32N 53°32' E 009°54'0 0.0
2017-Mar-21 06:31N 53°32' E 009°54'0 0.0
2017-Mar-21 05:31N 53°32' E 009°54'0 0.0
2017-Mar-21 04:31N 53°32' E 009°54'0 0.0
2017-Mar-21 03:31N 53°32' E 009°54'0 0.0
2017-Mar-21 02:31N 53°32' E 009°54'0 0.0
2017-Mar-21 01:31N 53°32' E 009°54'0 0.0
2017-Mar-21 00:31N 53°32' E 009°54'0 0.0
2017-Mar-20 23:31N 53°32' E 009°54'2 2.2
2017-Mar-20 22:33N 53°33' E 009°51'7 7.5
2017-Mar-20 21:33N 53°34' E 009°39'1111.1
2017-Mar-20 20:33N 53°43' E 009°28'1313.1
2017-Mar-20 19:34N 53°53' E 009°12'9 9.1
2017-Mar-20 18:33N 53°51' E 008°57'1111.1
2017-Mar-20 17:33N 53°55' E 008°40'1615.8
2017-Mar-20 16:33N 53°60' E 008°14'1312.7
2017-Mar-20 15:33N 53°54' E 007°55'1414.2
2017-Mar-20 14:33N 53°45' E 008°13'1413.6
2017-Mar-20 13:33N 53°36' E 008°30'2 2.0
2017-Mar-20 12:34N 53°35' E 008°32'0 0.0
2017-Mar-20 11:33N 53°35' E 008°32'0 0.0
2017-Mar-20 10:33N 53°35' E 008°32'0 0.0
2017-Mar-20 09:33N 53°35' E 008°32'0 0.0
2017-Mar-20 08:33N 53°35' E 008°32'0 0.0
2017-Mar-20 07:33N 53°35' E 008°32'0 0.0
2017-Mar-20 06:33N 53°35' E 008°32'0 0.0
2017-Mar-20 05:33N 53°35' E 008°32'0 0.0
2017-Mar-20 04:33N 53°35' E 008°32'6 6.1
2017-Mar-20 03:33N 53°39' E 008°25'1817.8
2017-Mar-20 02:33N 53°51' E 008°02'1413.7
2017-Mar-20 01:33N 53°54' E 007°39'1212.4
2017-Mar-20 00:33N 53°54' E 007°18'8019.2
2017-Mar-19 20:23N 53°32' E 005°08'1619.5
2017-Mar-19 19:32N 53°24' E 004°43'1919.3
2017-Mar-19 18:33N 53°08' E 004°28'2020.3
2017-Mar-19 17:33N 52°49' E 004°14'2120.8
2017-Mar-19 16:33N 52°32' E 003°55'2120.8
2017-Mar-19 15:33N 52°11' E 003°53'1312.8
2017-Mar-19 14:33N 51°60' E 004°02'2 2.4
2017-Mar-19 13:33N 51°58' E 004°04'0 0.0
2017-Mar-19 12:33N 51°58' E 004°04'0 0.0
2017-Mar-19 11:33N 51°58' E 004°04'0 0.0
2017-Mar-19 10:33N 51°58' E 004°04'0 0.0
2017-Mar-19 09:33N 51°58' E 004°04'0 0.0
2017-Mar-19 08:33N 51°58' E 004°04'0 0.0
2017-Mar-19 07:33N 51°58' E 004°04'0 0.0
2017-Mar-19 06:33N 51°58' E 004°04'0 0.0
2017-Mar-19 05:33N 51°58' E 004°04'0 0.0
2017-Mar-19 04:33N 51°58' E 004°04'0 0.0
2017-Mar-19 03:33N 51°58' E 004°04'0 0.0
2017-Mar-19 02:33N 51°58' E 004°04'0 0.0
2017-Mar-19 01:33N 51°58' E 004°04'0 0.0
2017-Mar-19 00:33N 51°58' E 004°04'7 7.2
2017-Mar-18 23:33N 51°59' E 003°53'6 5.8
2017-Mar-18 22:33N 51°59' E 003°43'6 6.4
2017-Mar-18 21:33N 51°58' E 003°33'8 7.5
2017-Mar-18 20:32N 51°55' E 003°21'43 7.9
2017-Mar-18 15:04N 51°53' E 002°12'612.4
2017-Mar-18 14:33N 51°51' E 002°02'1111.2
2017-Mar-18 13:34N 51°49' E 001°45'1110.8
2017-Mar-18 12:34N 51°56' E 001°31'9 8.7
2017-Mar-18 11:33N 51°58' E 001°17'0 0.0
2017-Mar-18 10:33N 51°58' E 001°17'0 0.0
2017-Mar-18 09:33N 51°58' E 001°17'0 0.0
2017-Mar-18 08:33N 51°58' E 001°17'0 0.0
2017-Mar-18 07:33N 51°58' E 001°17'0 0.0
2017-Mar-18 06:33N 51°58' E 001°17'0 0.0
2017-Mar-18 05:32N 51°58' E 001°17'0 0.0
2017-Mar-18 04:32N 51°58' E 001°17'0 0.0
2017-Mar-18 03:32N 51°58' E 001°17'0 0.0
2017-Mar-18 02:32N 51°58' E 001°17'0 0.0
2017-Mar-18 01:32N 51°58' E 001°17'0 0.0
2017-Mar-18 00:32N 51°58' E 001°17'0 0.0
2017-Mar-17 23:32N 51°58' E 001°17'0 0.0
2017-Mar-17 22:32N 51°58' E 001°17'0 0.0
2017-Mar-17 21:32N 51°58' E 001°17'0 0.0
2017-Mar-17 20:32N 51°58' E 001°17'0 0.0
2017-Mar-17 19:31N 51°58' E 001°17'0 0.0
2017-Mar-17 18:31N 51°58' E 001°17'0 0.0
2017-Mar-17 17:31N 51°58' E 001°17'0 0.0
2017-Mar-17 16:31N 51°58' E 001°17'0 0.0
2017-Mar-17 15:31N 51°58' E 001°17'0 0.0
2017-Mar-17 14:31N 51°58' E 001°17'0 0.0
2017-Mar-17 13:31N 51°58' E 001°17'0 0.0
2017-Mar-17 12:31N 51°58' E 001°17'1 0.6
2017-Mar-17 11:33N 51°57' E 001°18'8 8.3
2017-Mar-17 10:33N 51°56' E 001°31'8 8.4
2017-Mar-17 09:33N 51°51' E 001°42'5 5.3
2017-Mar-17 08:34N 51°48' E 001°49'6 6.3
2017-Mar-17 07:34N 51°42' E 001°50'8 7.6
2017-Mar-17 06:33N 51°34' E 001°52'10 9.6
2017-Mar-17 05:33N 51°26' E 002°01'1010.1
2017-Mar-17 04:34N 51°17' E 002°06'1010.3
2017-Mar-17 03:34N 51°10' E 001°53'1211.6
2017-Mar-17 02:34N 51°02' E 001°39'1313.1
2017-Mar-17 01:33N 50°52' E 001°26'1211.9
2017-Mar-17 00:34N 50°41' E 001°20'1312.1
2017-Mar-16 23:28N 50°33' E 001°04'1112.2
2017-Mar-16 22:32N 50°28' E 000°48'1612.4
2017-Mar-16 21:14N 50°24' E 000°23'812.4
2017-Mar-16 20:33N 50°22' E 000°10'1312.3
2017-Mar-16 19:30N 50°18' W 000°09'1212.3
2017-Mar-16 18:33N 50°15' W 000°27'1110.8
2017-Mar-16 17:33N 50°13' W 000°43'1615.7
2017-Mar-16 16:33N 50°08' W 001°07'1615.7
2017-Mar-16 15:33N 50°04' W 001°30'1313.0
2017-Mar-16 14:33N 50°01' W 001°50'1414.4
2017-Mar-16 13:33N 49°57' W 002°11'1615.9
2017-Mar-16 12:33N 49°53' W 002°35'1916.3
2017-Mar-16 11:25N 49°47' W 003°03'1416.5
2017-Mar-16 10:33N 49°40' W 003°21'1716.4
2017-Mar-16 09:33N 49°31' W 003°43'1616.5
2017-Mar-16 08:33N 49°23' W 004°05'1817.9
2017-Mar-16 07:34N 49°14' W 004°28'1918.6
2017-Mar-16 06:33N 49°04' W 004°52'1918.7
2017-Mar-16 05:33N 48°56' W 005°18'1818.4
2017-Mar-16 04:33N 48°45' W 005°41'1818.5
2017-Mar-16 03:33N 48°29' W 005°54'2517.7
2017-Mar-16 02:08N 48°06' W 006°10'1017.0
2017-Mar-16 01:32N 47°57' W 006°17'51316.3
2017-Mar-14 18:04N 39°48' W 009°52'917.3
2017-Mar-14 17:32N 39°39' W 009°52'2020.1
2017-Mar-14 16:34N 39°19' W 009°52'2120.5
2017-Mar-14 15:33N 38°59' W 009°51'2020.7
2017-Mar-14 14:33N 38°38' W 009°50'2020.4
2017-Mar-14 13:34N 38°21' W 009°36'2121.1
2017-Mar-14 12:34N 38°08' W 009°15'2019.8
2017-Mar-14 11:33N 37°56' W 008°55'7 0.4
2017-Mar-13 16:33N 37°49' W 008°54'1111.1
2017-Mar-13 15:34N 37°39' W 009°01'1515.4
2017-Mar-13 14:33N 37°26' W 009°10'  
Track history (hours):
 
Tides and Currents Weather Stations Pressure Air Temp Water Temp Dewpoint Dewpoint Depression Visibility Wind Speed Wind Dir Waves Ship Positions

MSC Ingrid

Last reported at 2017-Mar-23 13:32 UTC. Time now 2017-Mar-23 14:05 UTC.
Position N 51°17' E 004°15'.

Length 294 m; draft 10.9 m.

Type: Ship (hazmat cat A). MMSI: 354505000.

Date/timePositionNaut miles runAvg speedWind from/ knotsBaromVisibWave heightAir tempDewpointWater temp
2017-Mar-23 13:32N 51°17' E 004°15'0 0.0
2017-Mar-23 12:26N 51°17' E 004°15'0 0.0
2017-Mar-23 11:29N 51°17' E 004°15'0 0.4
2017-Mar-23 10:34N 51°17' E 004°16'0 0.4
2017-Mar-23 09:28N 51°17' E 004°15'0 0.1
2017-Mar-23 08:28N 51°17' E 004°15'0 0.0
2017-Mar-23 07:31N 51°17' E 004°15'0 0.0
2017-Mar-23 06:25N 51°17' E 004°15'0 0.0
2017-Mar-23 05:28N 51°17' E 004°15'0 0.0
2017-Mar-23 04:31N 51°17' E 004°15'0 0.0
2017-Mar-23 03:31N 51°17' E 004°15'0 0.0
2017-Mar-23 02:33N 51°17' E 004°15'0 0.0
2017-Mar-23 01:33N 51°17' E 004°15'0 0.0
2017-Mar-23 00:33N 51°17' E 004°15'0 0.0
2017-Mar-22 23:33N 51°17' E 004°15'0 0.0
2017-Mar-22 22:33N 51°17' E 004°15'0 0.0
2017-Mar-22 21:33N 51°17' E 004°15'0 0.4
2017-Mar-22 20:33N 51°17' E 004°16'4 3.6
2017-Mar-22 19:33N 51°21' E 004°15'10 9.4
2017-Mar-22 18:32N 51°25' E 004°02'1211.9
2017-Mar-22 17:34N 51°23' E 003°44'1110.8
2017-Mar-22 16:33N 51°25' E 003°27'1615.8
2017-Mar-22 15:33N 51°25' E 003°01'1515.0
2017-Mar-22 14:34N 51°39' E 003°11'9 8.7
2017-Mar-22 13:33N 51°47' E 003°15'4 2.1
2017-Mar-22 11:33N 51°49' E 003°21'0 0.0
2017-Mar-22 09:27N 51°49' E 003°21'0 0.0
2017-Mar-22 08:33N 51°49' E 003°21'0 0.0
2017-Mar-22 07:33N 51°49' E 003°21'0 0.0
2017-Mar-22 06:33N 51°49' E 003°21'1 0.7
2017-Mar-22 05:22N 51°50' E 003°21'10 9.8
2017-Mar-22 04:20N 51°60' E 003°20'1719.9
2017-Mar-22 03:28N 52°16' E 003°26'5518.4
2017-Mar-22 00:27N 53°03' E 004°14'1718.0
2017-Mar-21 23:30N 53°18' E 004°30'13018.0
2017-Mar-21 16:17N 54°02' E 007°56'1215.4
2017-Mar-21 15:32N 54°00' E 008°16'1413.9
2017-Mar-21 14:33N 53°57' E 008°39'1111.0
2017-Mar-21 13:33N 53°51' E 008°54'1212.2
2017-Mar-21 12:33N 53°53' E 009°14'1615.5
2017-Mar-21 11:34N 53°41' E 009°30'1312.7
2017-Mar-21 10:33N 53°33' E 009°48'4 3.8
2017-Mar-21 09:32N 53°32' E 009°54'0 0.0
2017-Mar-21 08:29N 53°32' E 009°54'0 0.0
2017-Mar-21 07:32N 53°32' E 009°54'0 0.0
2017-Mar-21 06:31N 53°32' E 009°54'0 0.0
2017-Mar-21 05:31N 53°32' E 009°54'0 0.0
2017-Mar-21 04:31N 53°32' E 009°54'0 0.0
2017-Mar-21 03:31N 53°32' E 009°54'0 0.0
2017-Mar-21 02:31N 53°32' E 009°54'0 0.0
2017-Mar-21 01:31N 53°32' E 009°54'0 0.0
2017-Mar-21 00:31N 53°32' E 009°54'0 0.0
2017-Mar-20 23:31N 53°32' E 009°54'2 2.2
2017-Mar-20 22:33N 53°33' E 009°51'7 7.5
2017-Mar-20 21:33N 53°34' E 009°39'1111.1
2017-Mar-20 20:33N 53°43' E 009°28'1313.1
2017-Mar-20 19:34N 53°53' E 009°12'9 9.1
2017-Mar-20 18:33N 53°51' E 008°57'1111.1
2017-Mar-20 17:33N 53°55' E 008°40'1615.8
2017-Mar-20 16:33N 53°60' E 008°14'1312.7
2017-Mar-20 15:33N 53°54' E 007°55'1414.2
2017-Mar-20 14:33N 53°45' E 008°13'1413.6
2017-Mar-20 13:33N 53°36' E 008°30'2 2.0
2017-Mar-20 12:34N 53°35' E 008°32'0 0.0
2017-Mar-20 11:33N 53°35' E 008°32'0 0.0
2017-Mar-20 10:33N 53°35' E 008°32'0 0.0
2017-Mar-20 09:33N 53°35' E 008°32'0 0.0
2017-Mar-20 08:33N 53°35' E 008°32'0 0.0
2017-Mar-20 07:33N 53°35' E 008°32'0 0.0
2017-Mar-20 06:33N 53°35' E 008°32'0 0.0
2017-Mar-20 05:33N 53°35' E 008°32'0 0.0
2017-Mar-20 04:33N 53°35' E 008°32'6 6.1
2017-Mar-20 03:33N 53°39' E 008°25'1817.8
2017-Mar-20 02:33N 53°51' E 008°02'1413.7
2017-Mar-20 01:33N 53°54' E 007°39'1212.4
2017-Mar-20 00:33N 53°54' E 007°18'8019.2
2017-Mar-19 20:23N 53°32' E 005°08'1619.5
2017-Mar-19 19:32N 53°24' E 004°43'1919.3
2017-Mar-19 18:33N 53°08' E 004°28'2020.3
2017-Mar-19 17:33N 52°49' E 004°14'2120.8
2017-Mar-19 16:33N 52°32' E 003°55'2120.8
2017-Mar-19 15:33N 52°11' E 003°53'1312.8
2017-Mar-19 14:33N 51°60' E 004°02'2 2.4
2017-Mar-19 13:33N 51°58' E 004°04'0 0.0
2017-Mar-19 12:33N 51°58' E 004°04'0 0.0
2017-Mar-19 11:33N 51°58' E 004°04'0 0.0
2017-Mar-19 10:33N 51°58' E 004°04'0 0.0
2017-Mar-19 09:33N 51°58' E 004°04'0 0.0
2017-Mar-19 08:33N 51°58' E 004°04'0 0.0
2017-Mar-19 07:33N 51°58' E 004°04'0 0.0
2017-Mar-19 06:33N 51°58' E 004°04'0 0.0
2017-Mar-19 05:33N 51°58' E 004°04'0 0.0
2017-Mar-19 04:33N 51°58' E 004°04'0 0.0
2017-Mar-19 03:33N 51°58' E 004°04'0 0.0
2017-Mar-19 02:33N 51°58' E 004°04'0 0.0
2017-Mar-19 01:33N 51°58' E 004°04'0 0.0
2017-Mar-19 00:33N 51°58' E 004°04'7 7.2
2017-Mar-18 23:33N 51°59' E 003°53'6 5.8
2017-Mar-18 22:33N 51°59' E 003°43'6 6.4
2017-Mar-18 21:33N 51°58' E 003°33'8 7.5
2017-Mar-18 20:32N 51°55' E 003°21'43 7.9
2017-Mar-18 15:04N 51°53' E 002°12'612.4
2017-Mar-18 14:33N 51°51' E 002°02'1111.2
2017-Mar-18 13:34N 51°49' E 001°45'1110.8
2017-Mar-18 12:34N 51°56' E 001°31'9 8.7
2017-Mar-18 11:33N 51°58' E 001°17'0 0.0
2017-Mar-18 10:33N 51°58' E 001°17'0 0.0
2017-Mar-18 09:33N 51°58' E 001°17'0 0.0
2017-Mar-18 08:33N 51°58' E 001°17'0 0.0
2017-Mar-18 07:33N 51°58' E 001°17'0 0.0
2017-Mar-18 06:33N 51°58' E 001°17'0 0.0
2017-Mar-18 05:32N 51°58' E 001°17'0 0.0
2017-Mar-18 04:32N 51°58' E 001°17'0 0.0
2017-Mar-18 03:32N 51°58' E 001°17'0 0.0
2017-Mar-18 02:32N 51°58' E 001°17'0 0.0
2017-Mar-18 01:32N 51°58' E 001°17'0 0.0
2017-Mar-18 00:32N 51°58' E 001°17'0 0.0
2017-Mar-17 23:32N 51°58' E 001°17'0 0.0
2017-Mar-17 22:32N 51°58' E 001°17'0 0.0
2017-Mar-17 21:32N 51°58' E 001°17'0 0.0
2017-Mar-17 20:32N 51°58' E 001°17'0 0.0
2017-Mar-17 19:31N 51°58' E 001°17'0 0.0
2017-Mar-17 18:31N 51°58' E 001°17'0 0.0
2017-Mar-17 17:31N 51°58' E 001°17'0 0.0
2017-Mar-17 16:31N 51°58' E 001°17'0 0.0
2017-Mar-17 15:31N 51°58' E 001°17'0 0.0
2017-Mar-17 14:31N 51°58' E 001°17'0 0.0
2017-Mar-17 13:31N 51°58' E 001°17'0 0.0
2017-Mar-17 12:31N 51°58' E 001°17'1 0.6
2017-Mar-17 11:33N 51°57' E 001°18'8 8.3
2017-Mar-17 10:33N 51°56' E 001°31'8 8.4
2017-Mar-17 09:33N 51°51' E 001°42'5 5.3
2017-Mar-17 08:34N 51°48' E 001°49'6 6.3
2017-Mar-17 07:34N 51°42' E 001°50'8 7.6
2017-Mar-17 06:33N 51°34' E 001°52'10 9.6
2017-Mar-17 05:33N 51°26' E 002°01'1010.1
2017-Mar-17 04:34N 51°17' E 002°06'1010.3
2017-Mar-17 03:34N 51°10' E 001°53'1211.6
2017-Mar-17 02:34N 51°02' E 001°39'1313.1
2017-Mar-17 01:33N 50°52' E 001°26'1211.9
2017-Mar-17 00:34N 50°41' E 001°20'1312.1
2017-Mar-16 23:28N 50°33' E 001°04'1112.2
2017-Mar-16 22:32N 50°28' E 000°48'1612.4
2017-Mar-16 21:14N 50°24' E 000°23'812.4
2017-Mar-16 20:33N 50°22' E 000°10'1312.3
2017-Mar-16 19:30N 50°18' W 000°09'1212.3
2017-Mar-16 18:33N 50°15' W 000°27'1110.8
2017-Mar-16 17:33N 50°13' W 000°43'1615.7
2017-Mar-16 16:33N 50°08' W 001°07'1615.7
2017-Mar-16 15:33N 50°04' W 001°30'1313.0
2017-Mar-16 14:33N 50°01' W 001°50'1414.4
2017-Mar-16 13:33N 49°57' W 002°11'1615.9
2017-Mar-16 12:33N 49°53' W 002°35'1916.3
2017-Mar-16 11:25N 49°47' W 003°03'1416.5
2017-Mar-16 10:33N 49°40' W 003°21'1716.4
2017-Mar-16 09:33N 49°31' W 003°43'1616.5
2017-Mar-16 08:33N 49°23' W 004°05'1817.9
2017-Mar-16 07:34N 49°14' W 004°28'1918.6
2017-Mar-16 06:33N 49°04' W 004°52'1918.7
2017-Mar-16 05:33N 48°56' W 005°18'1818.4
2017-Mar-16 04:33N 48°45' W 005°41'1818.5
2017-Mar-16 03:33N 48°29' W 005°54'2517.7
2017-Mar-16 02:08N 48°06' W 006°10'1017.0
2017-Mar-16 01:32N 47°57' W 006°17'51316.3
2017-Mar-14 18:04N 39°48' W 009°52'917.3
2017-Mar-14 17:32N 39°39' W 009°52'2020.1
2017-Mar-14 16:34N 39°19' W 009°52'2120.5
2017-Mar-14 15:33N 38°59' W 009°51'2020.7
2017-Mar-14 14:33N 38°38' W 009°50'2020.4
2017-Mar-14 13:34N 38°21' W 009°36'2121.1
2017-Mar-14 12:34N 38°08' W 009°15'2019.8
2017-Mar-14 11:33N 37°56' W 008°55'7 0.4
2017-Mar-13 16:33N 37°49' W 008°54'1111.1
2017-Mar-13 15:34N 37°39' W 009°01'1515.4
2017-Mar-13 14:33N 37°26' W 009°10'  

Dump ship's entire track history